EZY31WA LEMI-EGGD
Flight info
| Callsign | EZY31WA |
|---|---|
| Flight time | N/A |
| Altitude | 13000 |
| Route | ALT1L ALT DCT SERRA M176 CLS DCT WALLY N733 CENTA/N0430F340 DCT PRADO DCT BENED DCT CJN DCT RBO N867 BLV DCT DOSUL DCT XORNA DCT DELOG DCT NOVAN DCT NOZHU/N0407F290 DCT SHIRI DCT TOJAQ TOJAQ2B |
| Aircraft | A320/M-SDE2E3FGHIJ1RWXYZ/LB1 |
Departure
| Time | 2026-04-25 14:14 |
|---|---|
| Airport | Region of Murcia International Airport (LEMI) |
Arrival
| Time | N/A |
|---|---|
| Airport | Bristol Airport (EGGD) |
| Time | Latitude | Longitude | Altitude | Speed | Heading |
|---|---|---|---|---|---|
| 2026-04-25 13:45 | 37.80407 | -1.13051 | 647 ft | 0 kts | 315° |
| 2026-04-25 14:02 | 37.80396 | -1.13037 | 647 ft | 4 kts | 311° |
| 2026-04-25 14:02 | 37.80380 | -1.13010 | 647 ft | 4 kts | 297° |
| 2026-04-25 14:02 | 37.80372 | -1.12979 | 650 ft | 4 kts | 270° |
| 2026-04-25 14:02 | 37.80372 | -1.12968 | 647 ft | 4 kts | 255° |
| 2026-04-25 14:03 | 37.80377 | -1.12952 | 649 ft | 0 kts | 225° |
| 2026-04-25 14:04 | 37.80360 | -1.12975 | 649 ft | 9 kts | 225° |
| 2026-04-25 14:04 | 37.80323 | -1.13022 | 647 ft | 2 kts | 226° |
| 2026-04-25 14:09 | 37.80323 | -1.13023 | 647 ft | 1 kts | 226° |
| 2026-04-25 14:09 | 37.80283 | -1.13075 | 647 ft | 15 kts | 226° |
| 2026-04-25 14:09 | 37.80258 | -1.13107 | 647 ft | 15 kts | 226° |
| 2026-04-25 14:10 | 37.80146 | -1.13119 | 648 ft | 10 kts | 138° |
| 2026-04-25 14:10 | 37.80087 | -1.13090 | 648 ft | 8 kts | 193° |
| 2026-04-25 14:10 | 37.80031 | -1.13146 | 648 ft | 15 kts | 225° |
| 2026-04-25 14:10 | 37.79929 | -1.13277 | 651 ft | 26 kts | 225° |
| 2026-04-25 14:11 | 37.79787 | -1.13460 | 651 ft | 31 kts | 225° |
| 2026-04-25 14:11 | 37.79642 | -1.13645 | 648 ft | 28 kts | 225° |
| 2026-04-25 14:11 | 37.79542 | -1.13767 | 647 ft | 13 kts | 212° |
| 2026-04-25 14:11 | 37.79474 | -1.13754 | 649 ft | 9 kts | 138° |
| 2026-04-25 14:12 | 37.79429 | -1.13702 | 646 ft | 8 kts | 137° |
| 2026-04-25 14:12 | 37.79405 | -1.13649 | 644 ft | 6 kts | 83° |
| 2026-04-25 14:12 | 37.79422 | -1.13619 | 645 ft | 0 kts | 45° |
| 2026-04-25 14:13 | 37.79428 | -1.13611 | 645 ft | 8 kts | 45° |
| 2026-04-25 14:13 | 37.79624 | -1.13361 | 647 ft | 75 kts | 45° |
| 2026-04-25 14:13 | 37.80134 | -1.12704 | 644 ft | 132 kts | 45° |
| 2026-04-25 14:13 | 37.80890 | -1.11739 | 685 ft | 173 kts | 45° |
| 2026-04-25 14:14 | 37.81721 | -1.10695 | 1446 ft | 165 kts | 43° |
| 2026-04-25 14:14 | 37.82564 | -1.09683 | 2028 ft | 172 kts | 44° |
| 2026-04-25 14:14 | 37.83497 | -1.08573 | 2293 ft | 196 kts | 44° |
| 2026-04-25 14:14 | 37.84554 | -1.07318 | 2634 ft | 221 kts | 45° |
| 2026-04-25 14:15 | 37.85722 | -1.05928 | 3166 ft | 237 kts | 45° |
| 2026-04-25 14:15 | 37.86114 | -1.05462 | 3424 ft | 240 kts | 45° |
| 2026-04-25 14:15 | 37.88142 | -1.02887 | 4572 ft | 254 kts | 58° |
| 2026-04-25 14:15 | 37.88774 | -1.00793 | 5301 ft | 258 kts | 79° |
| 2026-04-25 14:16 | 37.89061 | -0.98536 | 6154 ft | 263 kts | 85° |
| 2026-04-25 14:16 | 37.89219 | -0.96210 | 7345 ft | 267 kts | 86° |
| 2026-04-25 14:16 | 37.89267 | -0.93858 | 8604 ft | 269 kts | 91° |
| 2026-04-25 14:16 | 37.89253 | -0.91468 | 9783 ft | 274 kts | 91° |
| 2026-04-25 14:17 | 37.89234 | -0.89039 | 10875 ft | 278 kts | 91° |
| 2026-04-25 14:17 | 37.89213 | -0.86596 | 11916 ft | 284 kts | 91° |
| 2026-04-25 14:17 | 37.89257 | -0.84061 | 12901 ft | 292 kts | 82° |
| 2026-04-25 14:17 | 37.89959 | -0.81629 | 13914 ft | 300 kts | 61° |
| 2026-04-25 14:18 | 37.91337 | -0.79603 | 14801 ft | 310 kts | 39° |
| 2026-04-25 14:18 | 37.93282 | -0.78381 | 15684 ft | 319 kts | 15° |
| 2026-04-25 14:18 | 37.95523 | -0.78288 | 16522 ft | 329 kts | 352° |
| 2026-04-25 14:18 | 37.97766 | -0.78973 | 17374 ft | 333 kts | 348° |
| 2026-04-25 14:19 | 38.00020 | -0.79716 | 18194 ft | 337 kts | 348° |
| 2026-04-25 14:19 | 38.02302 | -0.80475 | 18907 ft | 341 kts | 348° |
| 2026-04-25 14:19 | 38.04607 | -0.81240 | 19591 ft | 344 kts | 348° |
| 2026-04-25 14:19 | 38.07002 | -0.82028 | 19763 ft | 366 kts | 348° |
| 2026-04-25 14:20 | 38.09538 | -0.82855 | 19932 ft | 386 kts | 348° |
| 2026-04-25 14:20 | 38.10422 | -0.83143 | 20045 ft | 390 kts | 348° |
| 2026-04-25 14:20 | 38.14850 | -0.84586 | 20960 ft | 399 kts | 348° |
| 2026-04-25 14:20 | 38.17553 | -0.85470 | 21563 ft | 403 kts | 348° |
| 2026-04-25 14:21 | 38.20286 | -0.86363 | 22118 ft | 407 kts | 348° |
| 2026-04-25 14:21 | 38.23037 | -0.87260 | 22677 ft | 410 kts | 348° |
| 2026-04-25 14:21 | 38.25811 | -0.88167 | 23199 ft | 413 kts | 348° |
| 2026-04-25 14:21 | 38.28608 | -0.89088 | 23662 ft | 416 kts | 348° |
| 2026-04-25 14:22 | 38.31412 | -0.90013 | 24033 ft | 418 kts | 348° |
| 2026-04-25 14:22 | 38.34234 | -0.90941 | 24392 ft | 421 kts | 348° |
| 2026-04-25 14:22 | 38.37079 | -0.91873 | 24728 ft | 423 kts | 348° |
| 2026-04-25 14:22 | 38.39939 | -0.92809 | 25059 ft | 425 kts | 348° |
| 2026-04-25 14:23 | 38.42811 | -0.93753 | 25393 ft | 427 kts | 347° |
| 2026-04-25 14:23 | 38.45661 | -0.94696 | 25717 ft | 430 kts | 347° |
| 2026-04-25 14:23 | 38.48567 | -0.95653 | 26043 ft | 432 kts | 348° |
| 2026-04-25 14:23 | 38.51481 | -0.96610 | 26359 ft | 434 kts | 347° |
| 2026-04-25 14:24 | 38.54415 | -0.97575 | 26666 ft | 436 kts | 347° |
| 2026-04-25 14:24 | 38.57361 | -0.98547 | 26980 ft | 438 kts | 347° |
| 2026-04-25 14:24 | 38.60325 | -0.99526 | 27289 ft | 441 kts | 347° |
| 2026-04-25 14:24 | 38.63299 | -1.00504 | 27594 ft | 443 kts | 347° |
| 2026-04-25 14:25 | 38.66291 | -1.01486 | 27899 ft | 445 kts | 347° |
| 2026-04-25 14:25 | 38.69294 | -1.02476 | 28209 ft | 447 kts | 347° |
| 2026-04-25 14:25 | 38.72313 | -1.03473 | 28513 ft | 449 kts | 347° |
| 2026-04-25 14:25 | 38.73333 | -1.03812 | 28615 ft | 449 kts | 347° |
| 2026-04-25 14:26 | 38.78382 | -1.05498 | 29093 ft | 453 kts | 347° |
| 2026-04-25 14:26 | 38.81436 | -1.06519 | 29379 ft | 455 kts | 347° |
| 2026-04-25 14:26 | 38.84510 | -1.07542 | 29657 ft | 457 kts | 347° |
| 2026-04-25 14:26 | 38.87590 | -1.08566 | 29923 ft | 458 kts | 347° |
| 2026-04-25 14:27 | 38.90682 | -1.09592 | 30166 ft | 460 kts | 347° |
| 2026-04-25 14:27 | 38.93795 | -1.10623 | 30358 ft | 462 kts | 346° |
| 2026-04-25 14:27 | 38.96914 | -1.11659 | 30607 ft | 463 kts | 347° |
| 2026-04-25 14:27 | 39.00036 | -1.12699 | 30871 ft | 464 kts | 347° |
| 2026-04-25 14:28 | 39.02102 | -1.13390 | 31069 ft | 463 kts | 347° |
| 2026-04-25 14:28 | 39.05219 | -1.14436 | 31367 ft | 463 kts | 346° |
| 2026-04-25 14:28 | 39.08325 | -1.15481 | 31729 ft | 461 kts | 347° |
| 2026-04-25 14:28 | 39.11423 | -1.16522 | 32050 ft | 460 kts | 347° |
| 2026-04-25 14:29 | 39.14512 | -1.17558 | 32366 ft | 458 kts | 347° |
| 2026-04-25 14:29 | 39.17597 | -1.18593 | 32712 ft | 457 kts | 347° |
| 2026-04-25 14:29 | 39.20670 | -1.19623 | 33006 ft | 456 kts | 347° |
| 2026-04-25 14:29 | 39.23740 | -1.20654 | 33304 ft | 456 kts | 347° |
| 2026-04-25 14:30 | 39.26808 | -1.21685 | 33638 ft | 454 kts | 347° |
| 2026-04-25 14:30 | 39.32913 | -1.23740 | 34089 ft | 452 kts | 347° |
| 2026-04-25 14:30 | 39.35943 | -1.24761 | 34107 ft | 447 kts | 346° |
| 2026-04-25 14:31 | 39.41958 | -1.26794 | 34107 ft | 447 kts | 346° |
| 2026-04-25 14:31 | 39.47935 | -1.28828 | 34101 ft | 446 kts | 346° |
| 2026-04-25 14:32 | 39.53944 | -1.30865 | 34096 ft | 446 kts | 346° |
| 2026-04-25 14:32 | 39.59952 | -1.32898 | 34078 ft | 447 kts | 346° |
| 2026-04-25 14:33 | 39.65965 | -1.34939 | 34074 ft | 447 kts | 346° |
| 2026-04-25 14:33 | 39.71984 | -1.36996 | 34071 ft | 448 kts | 345° |
| 2026-04-25 14:34 | 39.78010 | -1.39061 | 34075 ft | 448 kts | 346° |
| 2026-04-25 14:34 | 39.84028 | -1.41199 | 34086 ft | 448 kts | 341° |
| 2026-04-25 14:35 | 39.86836 | -1.42825 | 34088 ft | 447 kts | 330° |
| 2026-04-25 14:35 | 39.89412 | -1.45097 | 34088 ft | 447 kts | 320° |
| 2026-04-25 14:35 | 39.91645 | -1.47910 | 34080 ft | 446 kts | 309° |
| 2026-04-25 14:35 | 39.93476 | -1.51167 | 34087 ft | 445 kts | 300° |
| 2026-04-25 14:36 | 39.96505 | -1.58194 | 34076 ft | 445 kts | 298° |
| 2026-04-25 14:36 | 39.99534 | -1.65244 | 34072 ft | 446 kts | 298° |
| 2026-04-25 14:37 | 40.02560 | -1.72316 | 34075 ft | 446 kts | 298° |
| 2026-04-25 14:37 | 40.05573 | -1.79388 | 34076 ft | 446 kts | 298° |
| 2026-04-25 14:38 | 40.08578 | -1.86465 | 34082 ft | 445 kts | 298° |
| 2026-04-25 14:38 | 40.11582 | -1.93533 | 34092 ft | 445 kts | 298° |
| 2026-04-25 14:39 | 40.14573 | -2.00607 | 34086 ft | 444 kts | 298° |
| 2026-04-25 14:39 | 40.17570 | -2.07667 | 34083 ft | 444 kts | 298° |
| 2026-04-25 14:40 | 40.20577 | -2.14712 | 34079 ft | 443 kts | 298° |
| 2026-04-25 14:40 | 40.23564 | -2.21765 | 34068 ft | 443 kts | 298° |
| 2026-04-25 14:41 | 40.26500 | -2.28783 | 34084 ft | 442 kts | 297° |
| 2026-04-25 14:41 | 40.29441 | -2.35840 | 34084 ft | 441 kts | 297° |
| 2026-04-25 14:42 | 40.31907 | -2.41745 | 34080 ft | 440 kts | 297° |
| 2026-04-25 14:42 | 40.35317 | -2.49924 | 34076 ft | 440 kts | 297° |
| 2026-04-25 14:43 | 40.38694 | -2.56609 | 34070 ft | 441 kts | 311° |
| 2026-04-25 14:43 | 40.42827 | -2.62554 | 34067 ft | 441 kts | 311° |
| 2026-04-25 14:44 | 40.46946 | -2.68514 | 34066 ft | 441 kts | 311° |
| 2026-04-25 14:44 | 40.51066 | -2.74482 | 34062 ft | 441 kts | 311° |
| 2026-04-25 14:45 | 40.55187 | -2.80466 | 34064 ft | 441 kts | 311° |
| 2026-04-25 14:45 | 40.59309 | -2.86461 | 34133 ft | 444 kts | 311° |
| 2026-04-25 14:46 | 40.61383 | -2.89487 | 34305 ft | 446 kts | 311° |
| 2026-04-25 14:46 | 40.63463 | -2.92520 | 34546 ft | 446 kts | 311° |
| 2026-04-25 14:46 | 40.65544 | -2.95552 | 34779 ft | 446 kts | 311° |
| 2026-04-25 14:46 | 40.67626 | -2.98586 | 35010 ft | 446 kts | 311° |
| 2026-04-25 14:47 | 40.69703 | -3.01617 | 35253 ft | 445 kts | 311° |
| 2026-04-25 14:47 | 40.71074 | -3.03621 | 35409 ft | 444 kts | 311° |
| 2026-04-25 14:47 | 40.73842 | -3.07675 | 35723 ft | 443 kts | 310° |
| 2026-04-25 14:47 | 40.75901 | -3.10700 | 35975 ft | 442 kts | 310° |
| 2026-04-25 14:48 | 40.80004 | -3.16716 | 36081 ft | 440 kts | 314° |
| 2026-04-25 14:48 | 40.82290 | -3.19313 | 36079 ft | 441 kts | 325° |
| 2026-04-25 14:48 | 40.84972 | -3.21293 | 36085 ft | 442 kts | 337° |
| 2026-04-25 14:49 | 40.87904 | -3.22536 | 36084 ft | 444 kts | 348° |
| 2026-04-25 14:49 | 40.90978 | -3.23022 | 36090 ft | 445 kts | 359° |
| 2026-04-25 14:49 | 40.97120 | -3.22039 | 36095 ft | 447 kts | 9° |
| 2026-04-25 14:50 | 41.03242 | -3.20665 | 36091 ft | 447 kts | 9° |
| 2026-04-25 14:50 | 41.09374 | -3.19290 | 36096 ft | 446 kts | 9° |
| 2026-04-25 14:51 | 41.15501 | -3.17909 | 36096 ft | 447 kts | 9° |
| 2026-04-25 14:51 | 41.21594 | -3.16537 | 36100 ft | 446 kts | 8° |
| 2026-04-25 14:52 | 41.27725 | -3.15156 | 36101 ft | 446 kts | 9° |
| 2026-04-25 14:52 | 41.32814 | -3.14001 | 36106 ft | 446 kts | 8° |
| 2026-04-25 14:53 | 41.39967 | -3.12372 | 36103 ft | 446 kts | 9° |
| 2026-04-25 14:53 | 41.46078 | -3.10979 | 36103 ft | 445 kts | 8° |
| 2026-04-25 14:54 | 41.52186 | -3.09590 | 36106 ft | 445 kts | 8° |
| 2026-04-25 14:54 | 41.58293 | -3.08210 | 36111 ft | 445 kts | 8° |
| 2026-04-25 14:55 | 41.64392 | -3.06837 | 36110 ft | 444 kts | 9° |
| 2026-04-25 14:55 | 41.70480 | -3.05453 | 36111 ft | 444 kts | 9° |
| 2026-04-25 14:56 | 41.76563 | -3.04054 | 36116 ft | 444 kts | 9° |
| 2026-04-25 14:56 | 41.82647 | -3.02652 | 36121 ft | 443 kts | 8° |
| 2026-04-25 14:57 | 41.88730 | -3.01256 | 36120 ft | 443 kts | 8° |
| 2026-04-25 14:57 | 41.94807 | -2.99852 | 36129 ft | 443 kts | 9° |
| 2026-04-25 14:58 | 42.00884 | -2.98437 | 36134 ft | 444 kts | 8° |
| 2026-04-25 14:58 | 42.06979 | -2.97156 | 36130 ft | 442 kts | 360° |
| 2026-04-25 14:59 | 42.10022 | -2.97502 | 36132 ft | 438 kts | 344° |
| 2026-04-25 14:59 | 42.12931 | -2.98673 | 36125 ft | 436 kts | 340° |
| 2026-04-25 14:59 | 42.18673 | -3.01182 | 36131 ft | 437 kts | 340° |
| 2026-04-25 15:00 | 42.24452 | -3.03741 | 36126 ft | 437 kts | 340° |
| 2026-04-25 15:00 | 42.30240 | -3.06293 | 36127 ft | 438 kts | 340° |
| 2026-04-25 15:01 | 42.36036 | -3.08842 | 36132 ft | 438 kts | 340° |
| 2026-04-25 15:01 | 42.41837 | -3.11406 | 36138 ft | 438 kts | 340° |